Time;durP1;ratioP1;P1;durP2;ratioP2;P2;SDS_P1;SDS_P2;PMS_P1;PMS_P2;Temp;Humidity;BMP_temperature;BMP_pressure;BME280_temperature;BME280_humidity;BME280_pressure;Samples;Min_cycle;Max_cycle;Signal;HPM_P1;HPM_P2
2022/06/15 00:01:33;;;;;;;10.75;1.70;;;24.90;59.50;;;;;;4842078;29;20363;-75
2022/06/15 00:04:02;;;;;;;7.10;2.10;;;24.90;59.70;;;;;;4842103;29;20435;-76
2022/06/15 00:06:30;;;;;;;9.10;2.13;;;24.90;59.80;;;;;;4841003;29;20033;-75
2022/06/15 00:08:58;;;;;;;8.50;2.22;;;24.90;59.90;;;;;;4841825;29;20026;-75
2022/06/15 00:11:26;;;;;;;9.10;2.20;;;24.90;59.90;;;;;;4842242;29;20056;-75
2022/06/15 00:13:54;;;;;;;6.55;2.00;;;24.80;60.20;;;;;;4841977;29;20034;-75
2022/06/15 00:16:20;;;;;;;9.00;1.80;;;24.80;60.30;;;;;;4849161;29;20021;-74
2022/06/15 00:18:47;;;;;;;10.30;1.65;;;24.80;60.20;;;;;;4843325;29;20506;-74
2022/06/15 00:21:15;;;;;;;6.97;2.25;;;24.80;60.20;;;;;;4860351;29;20474;-75
2022/06/15 00:23:41;;;;;;;7.20;1.90;;;24.70;60.80;;;;;;4860704;29;20037;-75
2022/06/15 00:26:07;;;;;;;6.82;2.45;;;24.70;61.00;;;;;;4859952;29;20619;-75
2022/06/15 00:28:34;;;;;;;6.75;2.15;;;24.80;60.50;;;;;;4860533;29;20033;-75
2022/06/15 00:31:00;;;;;;;11.13;2.38;;;24.70;60.90;;;;;;4858394;29;20056;-75
2022/06/15 00:33:27;;;;;;;7.47;2.15;;;24.70;62.10;;;;;;4846267;29;20093;-75
2022/06/15 00:35:59;;;;;;;11.35;1.98;;;24.70;62.30;;;;;;4859858;29;20054;-75
2022/06/15 00:38:32;;;;;;;15.52;2.00;;;24.70;62.30;;;;;;4859883;29;20028;-75
2022/06/15 00:40:59;;;;;;;10.90;2.15;;;24.70;63.10;;;;;;4859903;29;20034;-75
2022/06/15 00:43:38;;;;;;;7.60;2.38;;;24.60;63.20;;;;;;4855567;29;20086;-74
2022/06/15 00:46:29;;;;;;;14.52;2.97;;;24.50;63.80;;;;;;4841001;29;20036;-76
2022/06/15 00:49:17;;;;;;;9.27;2.15;;;24.50;63.80;;;;;;4849108;29;20029;-75
2022/06/15 00:51:44;;;;;;;7.95;2.17;;;24.50;64.00;;;;;;4860363;29;20041;-75
2022/06/15 00:54:10;;;;;;;9.48;2.30;;;24.40;64.30;;;;;;4859500;29;20031;-75
2022/06/15 00:56:38;;;;;;;7.75;1.73;;;24.50;64.30;;;;;;4859796;29;20041;-75
2022/06/15 00:59:09;;;;;;;9.60;2.03;;;24.40;64.70;;;;;;4858112;29;20098;-75
2022/06/15 01:01:35;;;;;;;;;;;24.40;65.00;;;;;;4860126;29;20368;-75
2022/06/15 01:04:03;;;;;;;9.98;1.95;;;24.40;65.70;;;;;;4859655;29;19960;-74
2022/06/15 01:06:44;;;;;;;10.82;2.08;;;24.40;65.60;;;;;;4859811;29;20030;-75
2022/06/15 01:09:20;;;;;;;7.88;2.47;;;24.30;65.40;;;;;;4852475;29;20034;-74
2022/06/15 01:11:57;;;;;;;14.63;2.25;;;24.20;66.00;;;;;;4859448;29;20124;-74
2022/06/15 01:14:53;;;;;;;5.18;1.98;;;24.30;65.60;;;;;;4859173;29;20116;-75
2022/06/15 01:17:27;;;;;;;7.22;1.95;;;24.20;66.50;;;;;;4859582;29;20032;-74
2022/06/15 01:20:17;;;;;;;7.40;2.30;;;24.10;66.70;;;;;;4859839;29;20162;-75
2022/06/15 01:23:26;;;;;;;7.45;2.20;;;24.00;67.40;;;;;;4859757;29;20026;-75
2022/06/15 01:26:19;;;;;;;6.88;2.15;;;23.90;68.50;;;;;;4823267;29;20154;-75
2022/06/15 01:29:02;;;;;;;13.95;2.50;;;23.90;68.80;;;;;;4842083;29;20124;-74
2022/06/15 01:31:46;;;;;;;5.07;1.55;;;23.90;69.60;;;;;;4842182;29;20054;-75
2022/06/15 01:34:37;;;;;;;6.85;2.20;;;23.60;69.40;;;;;;4842821;29;20037;-75
2022/06/15 01:37:20;;;;;;;7.88;1.92;;;23.50;69.20;;;;;;4842627;29;20052;-75
2022/06/15 01:40:26;;;;;;;11.85;2.15;;;23.60;68.90;;;;;;4842756;29;20528;-75
2022/06/15 01:43:03;;;;;;;6.47;2.30;;;23.60;69.30;;;;;;4839406;29;20533;-75
2022/06/15 01:45:32;;;;;;;6.35;1.90;;;23.60;70.50;;;;;;4842339;29;20057;-75
2022/06/15 01:48:01;;;;;;;8.63;2.72;;;23.60;70.60;;;;;;4842638;29;20450;-75
2022/06/15 01:50:34;;;;;;;9.27;2.58;;;23.40;71.50;;;;;;4842340;29;20525;-75
2022/06/15 01:53:13;;;;;;;8.00;2.40;;;23.40;71.50;;;;;;4842607;29;20038;-75
2022/06/15 01:55:52;;;;;;;11.07;2.30;;;23.30;71.80;;;;;;4844942;29;20034;-75
2022/06/15 01:58:22;;;;;;;5.25;1.88;;;23.30;71.40;;;;;;4862265;29;20083;-75
2022/06/15 02:00:57;;;;;;;7.40;1.85;;;23.30;71.10;;;;;;4862776;29;20479;-75
2022/06/15 02:03:33;;;;;;;8.38;2.28;;;23.30;72.60;;;;;;4862685;29;20029;-75
2022/06/15 02:06:30;;;;;;;4.38;1.98;;;23.30;72.70;;;;;;4847588;29;20104;-75
2022/06/15 02:09:24;;;;;;;6.70;1.90;;;23.20;72.60;;;;;;4843854;29;20022;-75
2022/06/15 02:11:51;;;;;;;10.20;2.40;;;23.10;73.20;;;;;;4844245;29;20045;-75
2022/06/15 02:14:19;;;;;;;9.05;2.20;;;23.00;71.70;;;;;;4843793;29;20034;-75
2022/06/15 02:16:55;;;;;;;8.85;2.20;;;23.10;72.50;;;;;;4846843;29;20030;-75
2022/06/15 02:19:32;;;;;;;12.48;2.90;;;23.00;73.60;;;;;;4862347;29;20060;-75
2022/06/15 02:22:02;;;;;;;10.45;2.35;;;23.00;73.80;;;;;;4862702;29;20022;-75
2022/06/15 02:24:29;;;;;;;10.93;2.25;;;23.10;71.40;;;;;;4862508;29;20490;-75
2022/06/15 02:26:55;;;;;;;9.35;2.00;;;23.10;72.00;;;;;;4861766;29;20041;-75
2022/06/15 02:29:25;;;;;;;7.00;2.58;;;23.00;73.30;;;;;;4860365;29;20031;-75
2022/06/15 02:31:55;;;;;;;11.65;1.90;;;23.00;73.60;;;;;;4861915;29;20387;-75
2022/06/15 02:34:21;;;;;;;5.18;2.10;;;23.00;72.50;;;;;;4862011;29;20104;-75
2022/06/15 02:36:47;;;;;;;8.13;2.55;;;23.00;73.60;;;;;;4861971;29;20483;-75
2022/06/15 02:39:13;;;;;;;9.07;2.40;;;22.90;73.60;;;;;;4862123;29;20032;-75
2022/06/15 02:41:38;;;;;;;10.63;2.22;;;23.00;72.80;;;;;;4860917;29;20033;-75
2022/06/15 02:44:06;;;;;;;8.63;2.53;;;23.10;72.10;;;;;;4862194;29;20030;-75
2022/06/15 02:46:37;;;;;;;12.05;2.72;;;23.20;71.00;;;;;;4861470;29;20121;-75
2022/06/15 02:49:03;;;;;;;11.18;2.17;;;23.10;72.10;;;;;;4860632;29;20490;-75
2022/06/15 02:51:47;;;;;;;13.38;2.80;;;23.00;72.60;;;;;;4861806;29;20482;-75
2022/06/15 02:54:39;;;;;;;11.80;2.70;;;22.70;74.20;;;;;;4862025;29;20025;-75
2022/06/15 02:57:05;;;;;;;13.23;2.58;;;22.80;75.00;;;;;;4861477;29;20036;-75
2022/06/15 02:59:30;;;;;;;7.18;2.38;;;22.70;74.80;;;;;;4860034;29;20104;-75
2022/06/15 03:01:57;;;;;;;11.05;2.53;;;22.80;73.10;;;;;;4843432;29;20090;-75
2022/06/15 03:04:23;;;;;;;11.00;2.50;;;22.80;73.80;;;;;;4843014;29;20037;-76
2022/06/15 03:06:49;;;;;;;11.45;2.20;;;22.90;74.40;;;;;;4843303;29;20411;-75
2022/06/15 03:09:14;;;;;;;12.05;2.58;;;22.80;74.80;;;;;;4843198;29;20101;-75
2022/06/15 03:11:40;;;;;;;10.23;2.20;;;22.80;73.10;;;;;;4842961;29;20462;-75
2022/06/15 03:14:07;;;;;;;9.23;2.33;;;22.80;74.00;;;;;;4843031;29;20030;-75
2022/06/15 03:16:33;;;;;;;8.85;2.90;;;22.80;74.00;;;;;;4842958;29;20030;-75
2022/06/15 03:18:58;;;;;;;12.55;2.90;;;22.90;74.60;;;;;;4843131;29;20022;-75
2022/06/15 03:21:24;;;;;;;10.70;2.42;;;22.90;74.80;;;;;;4843084;29;20125;-75
2022/06/15 03:23:50;;;;;;;13.48;2.95;;;22.80;74.60;;;;;;4842813;29;20151;-75
2022/06/15 03:26:16;;;;;;;12.00;3.25;;;22.60;74.10;;;;;;4842227;29;20522;-75
2022/06/15 03:28:41;;;;;;;9.75;2.50;;;22.70;75.40;;;;;;4855250;29;20037;-75
2022/06/15 03:31:07;;;;;;;13.02;3.08;;;22.70;76.60;;;;;;4860158;29;20030;-75
2022/06/15 03:33:34;;;;;;;8.60;2.30;;;22.70;76.50;;;;;;4861208;29;20033;-75
2022/06/15 03:35:59;;;;;;;11.48;2.10;;;22.60;75.90;;;;;;4861175;29;20032;-75
2022/06/15 03:38:26;;;;;;;7.30;2.28;;;22.60;76.00;;;;;;4860915;29;20482;-75
2022/06/15 03:40:51;;;;;;;9.02;2.85;;;22.60;76.20;;;;;;4861088;29;20506;-75
2022/06/15 03:43:17;;;;;;;12.40;2.55;;;22.70;76.10;;;;;;4860331;29;20060;-75
2022/06/15 03:45:43;;;;;;;14.15;2.85;;;22.70;76.90;;;;;;4856096;29;20121;-75
2022/06/15 03:48:10;;;;;;;11.15;3.10;;;22.70;76.80;;;;;;4842279;29;20026;-74
2022/06/15 03:50:37;;;;;;;10.07;2.88;;;22.80;76.90;;;;;;4842267;29;20034;-75
2022/06/15 03:53:03;;;;;;;18.48;3.45;;;22.70;76.20;;;;;;4842284;29;20068;-75
2022/06/15 03:55:29;;;;;;;11.23;2.72;;;22.70;76.20;;;;;;4860430;29;20040;-75
2022/06/15 03:57:56;;;;;;;10.20;2.70;;;22.60;76.60;;;;;;4860392;29;20057;-75
2022/06/15 04:00:23;;;;;;;12.02;3.22;;;22.60;76.70;;;;;;4859389;29;20444;-75
2022/06/15 04:02:49;;;;;;;8.00;2.40;;;22.70;77.50;;;;;;4860663;29;20082;-74
2022/06/15 04:05:19;;;;;;;11.82;2.45;;;22.60;76.40;;;;;;4861202;29;20371;-75
2022/06/15 04:10:28;;;;;;;10.18;2.42;;;22.60;77.10;;;;;;4860727;29;20053;-74
2022/06/15 04:12:54;;;;;;;7.40;2.60;;;22.50;78.60;;;;;;4860230;29;20378;-76
2022/06/15 04:15:20;;;;;;;9.18;2.63;;;22.50;78.40;;;;;;4860412;29;20029;-75
2022/06/15 04:17:45;;;;;;;14.95;2.78;;;22.60;78.10;;;;;;4860350;29;20049;-77
2022/06/15 04:20:32;;;;;;;8.40;2.70;;;22.50;78.90;;;;;;4860870;29;20494;-75
2022/06/15 04:23:02;;;;;;;17.00;3.08;;;22.50;79.50;;;;;;4859307;29;20053;-77
2022/06/15 04:25:30;;;;;;;17.45;2.97;;;22.40;79.70;;;;;;4841527;29;20085;-75
2022/06/15 04:27:57;;;;;;;9.95;2.38;;;22.30;81.00;;;;;;4841935;29;20502;-74
2022/06/15 04:30:23;;;;;;;11.18;2.58;;;22.30;80.10;;;;;;4841608;29;20030;-74
2022/06/15 04:32:49;;;;;;;17.20;3.30;;;22.30;80.20;;;;;;4841483;29;20034;-74
2022/06/15 04:35:15;;;;;;;15.18;2.65;;;22.30;80.30;;;;;;4842228;29;20482;-75
2022/06/15 04:37:41;;;;;;;4.75;1.80;;;22.20;81.40;;;;;;4855272;29;20030;-74
2022/06/15 04:40:08;;;;;;;10.68;2.95;;;22.20;81.20;;;;;;4852019;29;20089;-74
2022/06/15 04:42:36;;;;;;;8.57;3.20;;;22.20;80.70;;;;;;4851866;29;20044;-74
2022/06/15 04:45:02;;;;;;;10.35;2.75;;;22.10;82.40;;;;;;4854645;29;20484;-74
2022/06/15 04:47:28;;;;;;;14.93;2.33;;;22.20;83.20;;;;;;4858266;29;20022;-75
2022/06/15 04:49:54;;;;;;;8.88;2.47;;;22.10;83.40;;;;;;4851940;29;20033;-75
2022/06/15 04:52:19;;;;;;;14.38;3.47;;;22.20;84.00;;;;;;4848621;29;20100;-74
2022/06/15 04:54:45;;;;;;;13.30;2.35;;;22.20;84.90;;;;;;4852042;29;20068;-75
2022/06/15 04:57:11;;;;;;;7.50;2.47;;;22.20;84.10;;;;;;4854310;29;20028;-75
2022/06/15 04:59:36;;;;;;;9.90;2.42;;;22.20;83.90;;;;;;4859366;29;20114;-75
2022/06/15 05:02:02;;;;;;;14.80;3.25;;;22.10;84.70;;;;;;4859717;29;20022;-75
2022/06/15 05:04:28;;;;;;;12.00;2.58;;;22.10;85.00;;;;;;4856196;29;20086;-75
2022/06/15 05:06:54;;;;;;;9.98;3.00;;;22.10;86.10;;;;;;4848402;29;20025;-74
2022/06/15 05:09:20;;;;;;;10.73;2.83;;;22.20;86.90;;;;;;4850843;29;20041;-75
2022/06/15 05:11:46;;;;;;;11.88;3.20;;;22.30;87.70;;;;;;4850303;29;20116;-74
2022/06/15 05:14:12;;;;;;;12.95;3.10;;;22.30;88.40;;;;;;4858252;29;20121;-75
2022/06/15 05:16:38;;;;;;;8.88;1.73;;;22.30;85.60;;;;;;4859869;29;20045;-77
2022/06/15 05:19:04;;;;;;;5.63;2.28;;;22.30;80.10;;;;;;4843723;29;20037;-77
2022/06/15 05:21:30;;;;;;;8.45;1.95;;;22.40;82.20;;;;;;4842064;29;20478;-75
2022/06/15 05:23:57;;;;;;;8.60;2.30;;;22.50;82.70;;;;;;4859540;29;20036;-74
2022/06/15 05:26:24;;;;;;;8.45;2.50;;;22.60;82.50;;;;;;4858703;29;20046;-74
2022/06/15 05:28:51;;;;;;;6.95;1.92;;;22.60;80.80;;;;;;4848974;29;20037;-74
2022/06/15 05:31:22;;;;;;;7.80;2.30;;;22.60;79.10;;;;;;4852239;29;20029;-74
2022/06/15 05:33:53;;;;;;;5.53;2.08;;;22.70;79.30;;;;;;4840875;29;20038;-74
2022/06/15 05:36:21;;;;;;;13.82;2.15;;;22.70;79.00;;;;;;4843907;29;20128;-75
2022/06/15 05:38:47;;;;;;;5.68;2.10;;;22.80;79.10;;;;;;4845982;29;20507;-75
2022/06/15 05:41:13;;;;;;;6.13;1.77;;;22.70;76.20;;;;;;4840936;29;20051;-75
2022/06/15 05:43:49;;;;;;;6.68;1.98;;;22.80;76.50;;;;;;4857409;29;20490;-75
2022/06/15 05:46:26;;;;;;;10.30;2.13;;;22.90;75.90;;;;;;4855670;29;20032;-75
2022/06/15 05:48:53;;;;;;;8.30;2.20;;;22.80;76.20;;;;;;4850074;29;20104;-75
2022/06/15 05:51:19;;;;;;;6.78;2.20;;;22.90;76.20;;;;;;4855793;29;20116;-74
2022/06/15 05:53:45;;;;;;;4.63;1.92;;;22.90;75.70;;;;;;4842112;29;20158;-75
2022/06/15 05:56:10;;;;;;;7.75;2.42;;;23.00;75.30;;;;;;4858817;29;20466;-75
2022/06/15 05:58:36;;;;;;;8.32;2.33;;;23.10;76.60;;;;;;4856390;29;20105;-76
2022/06/15 06:01:22;;;;;;;10.70;2.63;;;23.10;75.50;;;;;;4849830;29;20448;-75
2022/06/15 06:03:48;;;;;;;12.50;2.72;;;23.20;75.70;;;;;;4840077;29;20049;-75
2022/06/15 06:06:13;;;;;;;11.77;2.03;;;23.20;76.90;;;;;;4840838;29;20033;-74
2022/06/15 06:08:39;;;;;;;10.05;2.45;;;23.30;74.60;;;;;;4840650;29;20034;-75
2022/06/15 06:11:05;;;;;;;12.63;2.80;;;23.30;75.10;;;;;;4842200;29;20041;-75
2022/06/15 06:13:30;;;;;;;16.15;2.30;;;23.30;74.50;;;;;;4846458;29;20026;-77
2022/06/15 06:15:56;;;;;;;5.53;1.95;;;23.40;75.70;;;;;;4851417;29;20108;-76
2022/06/15 06:18:25;;;;;;;7.70;1.98;;;23.40;75.00;;;;;;4854799;29;20117;-77
2022/06/15 06:20:52;;;;;;;10.18;2.65;;;23.40;74.20;;;;;;4851529;29;20045;-77
2022/06/15 06:23:18;;;;;;;11.48;2.63;;;23.50;74.10;;;;;;4855159;29;20105;-77
2022/06/15 06:25:47;;;;;;;9.45;2.28;;;23.50;74.10;;;;;;4849743;29;20042;-77
2022/06/15 06:28:31;;;;;;;6.75;2.50;;;23.60;74.30;;;;;;4860662;29;20037;-77
2022/06/15 06:30:59;;;;;;;10.70;2.28;;;23.70;74.40;;;;;;4846152;29;20034;-76
2022/06/15 06:33:30;;;;;;;9.35;2.35;;;23.70;74.50;;;;;;4860753;29;20041;-78
2022/06/15 06:35:57;;;;;;;8.75;2.60;;;23.60;73.50;;;;;;4861953;29;20029;-76
2022/06/15 06:38:24;;;;;;;6.28;2.13;;;23.70;75.00;;;;;;4861040;29;20041;-77
2022/06/15 06:40:51;;;;;;;9.77;2.70;;;23.80;74.30;;;;;;4857685;29;20448;-76
2022/06/15 06:43:17;;;;;;;6.07;2.10;;;23.90;74.70;;;;;;4844039;29;20042;-77
2022/06/15 06:45:43;;;;;;;7.57;2.67;;;23.90;74.80;;;;;;4849638;29;20041;-77
2022/06/15 06:48:09;;;;;;;10.75;2.53;;;23.90;73.00;;;;;;4843450;29;20086;-77
2022/06/15 06:50:36;;;;;;;6.35;2.30;;;23.90;74.00;;;;;;4846943;29;20077;-77
2022/06/15 06:53:03;;;;;;;10.27;2.15;;;23.90;73.90;;;;;;4844834;29;20133;-77
2022/06/15 06:55:30;;;;;;;7.03;2.20;;;24.00;73.80;;;;;;4851271;29;20021;-76
2022/06/15 06:57:57;;;;;;;4.93;2.08;;;24.00;73.90;;;;;;4861226;29;20033;-77
2022/06/15 07:00:23;;;;;;;9.60;2.33;;;24.10;74.00;;;;;;4848632;29;20109;-76
2022/06/15 07:02:49;;;;;;;11.07;2.22;;;24.10;74.10;;;;;;4843043;29;20036;-76
2022/06/15 07:05:16;;;;;;;9.63;2.28;;;24.10;73.50;;;;;;4843296;29;20487;-77
2022/06/15 07:07:42;;;;;;;10.80;2.35;;;24.20;73.50;;;;;;4850659;29;20065;-76
2022/06/15 07:10:08;;;;;;;5.63;2.00;;;24.20;72.40;;;;;;4852339;29;20401;-76
2022/06/15 07:12:36;;;;;;;8.40;2.67;;;24.20;72.60;;;;;;4855061;29;20030;-76
2022/06/15 07:15:05;;;;;;;8.82;2.25;;;24.30;72.70;;;;;;4851110;29;20041;-77
2022/06/15 07:17:31;;;;;;;7.13;1.90;;;24.40;72.50;;;;;;4853524;29;20025;-76
2022/06/15 07:19:57;;;;;;;6.53;1.85;;;24.40;72.10;;;;;;4852364;29;20053;-78
2022/06/15 07:22:22;;;;;;;4.38;1.77;;;24.60;73.50;;;;;;4848500;29;20037;-78
2022/06/15 07:24:49;;;;;;;9.07;2.58;;;24.50;72.00;;;;;;4849913;29;20121;-77
2022/06/15 07:27:15;;;;;;;6.75;2.25;;;24.60;72.70;;;;;;4852498;29;20033;-77
2022/06/15 07:29:43;;;;;;;7.85;2.47;;;24.70;71.70;;;;;;4853707;29;20082;-77
2022/06/15 07:32:09;;;;;;;7.80;2.40;;;24.70;72.10;;;;;;4848925;29;20458;-78
2022/06/15 07:34:35;;;;;;;8.48;1.80;;;24.90;73.60;;;;;;4851971;29;20021;-77
2022/06/15 07:37:01;;;;;;;9.60;2.65;;;24.90;71.00;;;;;;4851968;29;20437;-77
2022/06/15 07:39:30;;;;;;;12.07;2.35;;;24.90;72.10;;;;;;4847842;29;20032;-75
2022/06/15 07:41:57;;;;;;;5.75;2.10;;;25.00;72.60;;;;;;4852553;29;20420;-78
2022/06/15 07:44:25;;;;;;;9.57;2.20;;;25.00;72.10;;;;;;4849694;29;20030;-77
2022/06/15 07:49:59;;;;;;;10.63;2.58;;;25.00;71.50;;;;;;4841384;29;20050;-77
2022/06/15 07:52:40;;;;;;;6.88;2.13;;;25.00;71.50;;;;;;4849868;29;20541;-78
2022/06/15 07:55:09;;;;;;;6.13;1.90;;;25.10;72.30;;;;;;4856622;29;20125;-78
2022/06/15 07:57:35;;;;;;;7.60;2.50;;;25.20;71.90;;;;;;4858550;29;20154;-77
2022/06/15 08:00:03;;;;;;;7.60;2.13;;;25.30;72.60;;;;;;4839891;29;20034;-78
2022/06/15 08:02:29;;;;;;;7.68;2.17;;;25.20;72.60;;;;;;4840124;29;20046;-78
2022/06/15 08:04:54;;;;;;;13.07;2.88;;;25.30;72.50;;;;;;4843643;29;20033;-78
2022/06/15 08:07:20;;;;;;;10.93;2.60;;;25.40;72.90;;;;;;4858149;29;20478;-78
2022/06/15 08:09:46;;;;;;;3.75;1.95;;;25.60;72.10;;;;;;4858918;29;20060;-77
2022/06/15 08:12:14;;;;;;;7.78;2.22;;;25.80;71.60;;;;;;4849849;29;20038;-78
2022/06/15 08:14:53;;;;;;;7.35;2.10;;;25.80;71.50;;;;;;4855459;29;20265;-77
2022/06/15 08:17:28;;;;;;;7.32;2.55;;;25.90;71.20;;;;;;4851908;29;20073;-78
2022/06/15 08:20:00;;;;;;;9.18;2.42;;;26.00;71.20;;;;;;4847623;29;20046;-78
2022/06/15 08:22:27;;;;;;;7.43;2.20;;;26.20;70.70;;;;;;4847939;29;20048;-78
2022/06/15 08:24:53;;;;;;;7.60;2.20;;;26.30;71.30;;;;;;4849432;29;20085;-78
2022/06/15 08:27:22;;;;;;;8.82;2.72;;;26.70;70.80;;;;;;4846693;29;20562;-77
2022/06/15 08:29:49;;;;;;;8.13;2.15;;;26.80;69.10;;;;;;4851968;29;20017;-78
2022/06/15 08:32:16;;;;;;;5.38;2.00;;;27.20;69.00;;;;;;4856291;29;20021;-78
2022/06/15 08:34:43;;;;;;;10.15;2.88;;;27.40;68.30;;;;;;4848745;29;20041;-77
2022/06/15 10:25:03;;;;;;;6.95;1.67;;;31.90;51.70;;;;;;5700552;24;20075;-84
2022/06/15 10:27:35;;;;;;;5.63;1.35;;;31.70;51.80;;;;;;4879888;29;20105;-84
2022/06/15 10:30:07;;;;;;;5.72;1.90;;;32.10;51.60;;;;;;4881764;29;20033;-81
2022/06/15 10:32:34;;;;;;;7.00;1.55;;;32.20;51.10;;;;;;4880803;29;20044;-81
2022/06/15 10:35:03;;;;;;;4.80;1.70;;;32.60;51.70;;;;;;4881766;29;20031;-81
2022/06/15 10:37:34;;;;;;;6.10;1.60;;;32.30;51.80;;;;;;4881545;29;20052;-81
2022/06/15 10:40:05;;;;;;;12.63;2.25;;;32.70;52.00;;;;;;4879886;29;20033;-83
2022/06/15 10:42:35;;;;;;;9.10;1.73;;;32.60;50.80;;;;;;4879749;29;20029;-82
2022/06/15 10:45:07;;;;;;;5.95;1.65;;;33.10;51.90;;;;;;4881061;29;20378;-83
2022/06/15 10:47:49;;;;;;;5.97;2.03;;;33.10;50.60;;;;;;4880063;29;20025;-82
2022/06/15 10:50:48;;;;;;;8.40;2.17;;;33.00;51.80;;;;;;4879902;29;20112;-82
2022/06/15 10:53:44;;;;;;;12.23;2.83;;;33.40;50.00;;;;;;4880075;29;20025;-85
2022/06/15 11:02:23;;;;;;;12.38;2.55;;;33.90;50.90;;;;;;4880754;29;20040;-88
2022/06/15 11:04:49;;;;;;;8.80;2.22;;;33.50;49.60;;;;;;4879302;29;20040;-85
2022/06/15 11:07:21;;;;;;;11.75;2.85;;;33.40;50.70;;;;;;4879669;29;20037;-85
2022/06/15 11:09:55;;;;;;;8.27;2.13;;;33.90;51.00;;;;;;4879934;29;20081;-85
2022/06/15 11:12:45;;;;;;;7.18;2.13;;;34.10;49.00;;;;;;4879968;29;20402;-85
2022/06/15 11:15:14;;;;;;;8.02;1.88;;;33.30;49.40;;;;;;4879910;29;20072;-85
2022/06/15 11:18:01;;;;;;;9.77;2.40;;;33.60;50.50;;;;;;4878375;29;20021;-86
2022/06/15 11:20:48;;;;;;;11.13;2.30;;;33.70;49.70;;;;;;4879855;29;20032;-86
2022/06/15 11:23:25;;;;;;;10.32;2.30;;;33.40;49.40;;;;;;4879195;29;20056;-86
2022/06/15 11:25:59;;;;;;;8.68;2.20;;;33.20;49.60;;;;;;4869124;29;20390;-85
2022/06/15 11:28:42;;;;;;;11.23;2.10;;;33.60;48.90;;;;;;4879655;29;20044;-86
2022/06/15 11:31:14;;;;;;;10.32;2.22;;;33.30;49.90;;;;;;4879667;29;20073;-85
2022/06/15 11:33:49;;;;;;;14.32;2.72;;;34.10;50.40;;;;;;4879152;29;20721;-85
2022/06/15 11:36:25;;;;;;;14.20;2.22;;;34.30;48.80;;;;;;4879611;29;20489;-85
2022/06/15 11:39:07;;;;;;;10.10;2.25;;;34.10;49.80;;;;;;4879562;29;20422;-85
2022/06/15 11:41:40;;;;;;;10.15;2.45;;;33.90;49.80;;;;;;4879443;29;20117;-85
2022/06/15 11:44:16;;;;;;;8.52;2.30;;;34.00;50.30;;;;;;4862081;29;20077;-86
2022/06/15 11:47:03;;;;;;;9.55;2.00;;;34.10;48.60;;;;;;4861656;29;20041;-85
2022/06/15 11:49:42;;;;;;;15.85;2.20;;;34.30;49.40;;;;;;4861737;29;20113;-86
2022/06/15 11:52:33;;;;;;;9.73;2.20;;;34.60;48.60;;;;;;4873544;29;20069;-86
2022/06/15 11:55:16;;;;;;;12.47;2.53;;;35.00;49.50;;;;;;4880212;29;20033;-85
2022/06/15 11:58:07;;;;;;;9.15;2.17;;;35.00;48.50;;;;;;4880008;29;20029;-85
2022/06/15 12:01:02;;;;;;;9.05;2.60;;;35.00;49.20;;;;;;4880004;29;20065;-85
2022/06/15 12:04:19;;;;;;;10.00;2.30;;;35.70;49.80;;;;;;4879655;29;20515;-86
2022/06/15 12:07:05;;;;;;;12.43;2.05;;;35.30;48.70;;;;;;4840275;29;20128;-85
2022/06/15 12:09:55;;;;;;;7.93;2.33;;;34.90;49.10;;;;;;4824685;29;20038;-85
2022/06/15 12:12:37;;;;;;;11.38;2.42;;;34.80;48.70;;;;;;4839558;29;20560;-85
2022/06/15 12:15:06;;;;;;;8.00;2.05;;;35.00;48.70;;;;;;4830394;29;20050;-85
2022/06/15 12:17:46;;;;;;;9.10;2.50;;;35.40;48.80;;;;;;4822114;29;20042;-86
2022/06/15 12:20:45;;;;;;;8.07;2.15;;;35.40;48.20;;;;;;4839875;29;20022;-86
2022/06/15 12:23:20;;;;;;;11.52;2.20;;;35.30;48.70;;;;;;4837004;29;20065;-86
2022/06/15 12:26:07;;;;;;;11.52;2.63;;;35.50;48.10;;;;;;4829294;29;20058;-86
2022/06/15 12:29:14;;;;;;;14.88;2.50;;;35.00;48.70;;;;;;4831525;29;20620;-86
2022/06/15 12:31:46;;;;;;;10.70;2.88;;;35.00;48.70;;;;;;4821465;29;20073;-86
2022/06/15 12:34:33;;;;;;;15.63;2.78;;;35.70;48.70;;;;;;4837311;29;20525;-86
2022/06/15 12:37:06;;;;;;;15.20;2.78;;;35.50;47.90;;;;;;4838916;29;20077;-87
2022/06/15 12:39:45;;;;;;;9.82;2.42;;;35.40;48.80;;;;;;4839958;29;20130;-86
2022/06/15 12:42:14;;;;;;;10.43;2.67;;;36.00;48.20;;;;;;4856130;29;20087;-85
2022/06/15 12:45:22;;;;;;;10.40;2.78;;;35.00;47.90;;;;;;4878449;29;20084;-85
2022/06/15 12:48:05;;;;;;;7.05;2.20;;;35.20;48.50;;;;;;4839321;29;20077;-85
2022/06/15 12:50:31;;;;;;;20.38;3.03;;;35.40;48.50;;;;;;4839021;29;20050;-85
2022/06/15 12:53:25;;;;;;;10.63;2.83;;;35.20;48.10;;;;;;4824151;29;20104;-86
2022/06/15 12:55:51;;;;;;;7.85;2.00;;;35.50;48.00;;;;;;4839228;29;20042;-85
2022/06/15 12:58:28;;;;;;;7.68;2.58;;;35.40;47.60;;;;;;4830542;29;20049;-85
2022/06/15 13:00:57;;;;;;;11.43;2.30;;;35.20;47.00;;;;;;4838389;29;20038;-86
2022/06/15 13:03:47;;;;;;;11.25;2.33;;;35.60;48.10;;;;;;4838817;29;20057;-86
2022/06/15 13:06:21;;;;;;;11.40;2.78;;;36.10;47.90;;;;;;4839350;29;20049;-86
2022/06/15 13:09:08;;;;;;;9.73;2.63;;;35.60;47.30;;;;;;4839123;29;20025;-85
2022/06/15 13:12:09;;;;;;;12.75;2.92;;;35.50;47.30;;;;;;4839065;29;20038;-85
2022/06/15 13:14:51;;;;;;;12.50;2.40;;;35.90;46.90;;;;;;4832719;29;20035;-86
2022/06/15 13:17:27;;;;;;;8.77;2.25;;;35.40;47.50;;;;;;4838867;29;20422;-85
2022/06/15 13:20:06;;;;;;;22.92;2.75;;;35.40;47.80;;;;;;4837956;29;20065;-86
2022/06/15 13:22:40;;;;;;;10.43;2.47;;;35.80;46.80;;;;;;4838552;29;20052;-86
2022/06/15 13:25:11;;;;;;;11.45;2.45;;;35.70;46.50;;;;;;4864876;29;20416;-85
2022/06/15 13:27:41;;;;;;;14.25;2.90;;;35.90;46.40;;;;;;4876203;29;20033;-84
2022/06/15 13:30:24;;;;;;;16.58;3.20;;;35.50;46.00;;;;;;4876372;29;20116;-85
2022/06/15 13:33:04;;;;;;;11.60;2.67;;;35.80;46.90;;;;;;4875736;29;20034;-80
2022/06/15 13:35:36;;;;;;;12.23;2.75;;;35.80;46.30;;;;;;4874011;29;20101;-82
2022/06/15 13:38:04;;;;;;;14.18;2.75;;;35.90;45.40;;;;;;4876667;29;20482;-81
2022/06/15 13:40:57;;;;;;;19.20;3.08;;;36.10;45.40;;;;;;4873155;29;20039;-81
2022/06/15 13:43:55;;;;;;;11.68;2.72;;;36.30;48.10;;;;;;4874486;29;20044;-81
2022/06/15 13:46:32;;;;;;;16.63;2.63;;;35.90;44.50;;;;;;4878655;29;20029;-81
2022/06/15 13:49:24;;;;;;;12.57;2.55;;;35.80;45.20;;;;;;4864488;29;20025;-81
2022/06/15 13:51:55;;;;;;;9.75;2.95;;;36.10;45.50;;;;;;4876099;29;20409;-87
2022/06/15 13:54:45;;;;;;;14.27;2.75;;;35.60;44.30;;;;;;4876021;29;20037;-83
2022/06/15 13:57:48;;;;;;;10.50;2.60;;;35.80;44.50;;;;;;4874475;29;20021;-81
2022/06/15 14:00:43;;;;;;;15.32;2.92;;;35.90;44.40;;;;;;4876110;29;20025;-82
2022/06/15 14:03:43;;;;;;;9.68;2.60;;;36.20;45.60;;;;;;4874919;29;20029;-81
2022/06/15 14:06:58;;;;;;;9.88;2.92;;;35.90;43.80;;;;;;4876085;29;20029;-83
2022/06/15 14:09:35;;;;;;;14.43;2.83;;;35.40;45.00;;;;;;4856268;29;20076;-81
2022/06/15 14:12:01;;;;;;;13.80;2.97;;;35.20;44.50;;;;;;4876223;29;20040;-82
2022/06/15 14:14:58;;;;;;;16.20;2.90;;;35.70;45.50;;;;;;4876105;29;20033;-83
2022/06/15 14:17:42;;;;;;;17.20;2.65;;;35.70;43.90;;;;;;4875940;29;20021;-82
2022/06/15 14:20:15;;;;;;;10.00;3.60;;;35.70;43.60;;;;;;4876196;29;20532;-83
2022/06/15 14:22:56;;;;;;;15.90;2.92;;;35.90;44.40;;;;;;4877174;29;20036;-83
2022/06/15 14:25:22;;;;;;;15.50;3.00;;;36.10;43.90;;;;;;4877483;29;20405;-80
2022/06/15 14:27:57;;;;;;;11.70;3.50;;;36.30;43.80;;;;;;4877540;29;20029;-80
2022/06/15 14:30:32;;;;;;;18.50;2.88;;;36.50;44.40;;;;;;4874704;29;20026;-80
2022/06/15 14:33:24;;;;;;;9.70;2.63;;;36.40;44.30;;;;;;4879316;29;20386;-81
2022/06/15 14:36:13;;;;;;;11.23;2.72;;;36.00;43.70;;;;;;4880957;29;20021;-83
2022/06/15 14:38:41;;;;;;;13.60;2.72;;;36.10;44.10;;;;;;4881135;29;20021;-83
2022/06/15 14:41:19;;;;;;;12.48;3.28;;;36.20;44.30;;;;;;4880633;29;20115;-83
2022/06/15 14:43:48;;;;;;;17.52;3.47;;;36.20;43.90;;;;;;4869955;29;20036;-84
2022/06/15 14:46:20;;;;;;;16.75;3.13;;;36.30;43.60;;;;;;4880237;29;20493;-84
2022/06/15 14:48:55;;;;;;;14.57;3.00;;;36.30;44.20;;;;;;4879770;29;20117;-83
2022/06/15 14:51:24;;;;;;;16.15;2.63;;;36.30;44.30;;;;;;4872008;29;20029;-83
2022/06/15 14:53:55;;;;;;;13.60;3.10;;;36.10;44.90;;;;;;4880365;29;20025;-80
2022/06/15 14:56:26;;;;;;;12.85;2.97;;;35.90;44.70;;;;;;4880724;29;20144;-79
2022/06/15 14:59:08;;;;;;;8.80;2.20;;;36.10;45.30;;;;;;4878164;29;20088;-79
2022/06/15 15:01:53;;;;;;;16.73;4.20;;;36.00;44.90;;;;;;4884415;29;20021;-79
2022/06/15 15:04:21;;;;;;;14.50;3.25;;;36.10;45.50;;;;;;4881138;29;20075;-81
2022/06/15 15:06:52;;;;;;;15.20;3.03;;;36.10;45.10;;;;;;4880533;29;20041;-82
2022/06/15 15:09:19;;;;;;;12.90;2.78;;;36.10;44.90;;;;;;4870565;29;20037;-83
2022/06/15 15:11:46;;;;;;;12.95;3.08;;;36.00;44.00;;;;;;4862150;29;20041;-83
2022/06/15 15:14:18;;;;;;;14.48;3.13;;;35.80;45.20;;;;;;4873190;29;20021;-82